sensor_id;sensor_type;location;lat;lon;timestamp;pressure;altitude;pressure_sealevel;temperature;humidity
4012;BME280;2020;48.682;9.024;2024-02-14T00:00:31;96849.13;;;1.81;86.36
4012;BME280;2020;48.682;9.024;2024-02-14T00:02:57;96842.44;;;1.78;87.09
4012;BME280;2020;48.682;9.024;2024-02-14T00:05:22;96849.66;;;1.86;86.90
4012;BME280;2020;48.682;9.024;2024-02-14T00:07:48;96847.28;;;1.97;86.67
4012;BME280;2020;48.682;9.024;2024-02-14T00:10:13;96857.75;;;2.09;86.05
4012;BME280;2020;48.682;9.024;2024-02-14T00:12:38;96850.75;;;1.96;87.20
4012;BME280;2020;48.682;9.024;2024-02-14T00:15:04;96852.06;;;2.03;87.41
4012;BME280;2020;48.682;9.024;2024-02-14T00:17:31;96852.25;;;2.00;87.77
4012;BME280;2020;48.682;9.024;2024-02-14T00:19:56;96852.31;;;2.13;87.32
4012;BME280;2020;48.682;9.024;2024-02-14T00:22:23;96852.31;;;2.13;87.68
4012;BME280;2020;48.682;9.024;2024-02-14T00:24:48;96854.81;;;2.15;87.71
4012;BME280;2020;48.682;9.024;2024-02-14T00:27:13;96851.50;;;2.13;88.52
4012;BME280;2020;48.682;9.024;2024-02-14T00:29:42;96849.50;;;2.18;87.97
4012;BME280;2020;48.682;9.024;2024-02-14T00:32:12;96855.06;;;2.25;88.26
4012;BME280;2020;48.682;9.024;2024-02-14T00:34:38;96846.25;;;2.29;87.71
4012;BME280;2020;48.682;9.024;2024-02-14T00:37:03;96848.53;;;2.33;88.61
4012;BME280;2020;48.682;9.024;2024-02-14T00:39:29;96847.78;;;2.46;87.59
4012;BME280;2020;48.682;9.024;2024-02-14T00:41:54;96850.44;;;2.44;87.42
4012;BME280;2020;48.682;9.024;2024-02-14T00:44:21;96846.56;;;2.52;86.08
4012;BME280;2020;48.682;9.024;2024-02-14T00:46:46;96851.69;;;2.52;86.53
4012;BME280;2020;48.682;9.024;2024-02-14T00:49:11;96852.97;;;2.59;88.04
4012;BME280;2020;48.682;9.024;2024-02-14T00:51:37;96853.22;;;2.69;86.87
4012;BME280;2020;48.682;9.024;2024-02-14T00:54:08;96857.25;;;2.73;87.32
4012;BME280;2020;48.682;9.024;2024-02-14T00:56:33;96857.59;;;2.81;87.60
4012;BME280;2020;48.682;9.024;2024-02-14T00:58:59;96853.75;;;2.74;86.82
4012;BME280;2020;48.682;9.024;2024-02-14T01:01:24;96854.28;;;2.79;87.84
4012;BME280;2020;48.682;9.024;2024-02-14T01:03:49;96852.84;;;2.75;88.30
4012;BME280;2020;48.682;9.024;2024-02-14T01:06:15;96857.59;;;2.81;88.84
4012;BME280;2020;48.682;9.024;2024-02-14T01:08:41;96857.00;;;2.90;88.79
4012;BME280;2020;48.682;9.024;2024-02-14T01:11:09;96860.69;;;2.86;89.84
4012;BME280;2020;48.682;9.024;2024-02-14T01:13:35;96873.28;;;2.91;89.88
4012;BME280;2020;48.682;9.024;2024-02-14T01:16:00;96867.09;;;2.93;90.24
4012;BME280;2020;48.682;9.024;2024-02-14T01:18:25;96862.69;;;2.96;91.29
4012;BME280;2020;48.682;9.024;2024-02-14T01:20:51;96866.50;;;3.03;93.01
4012;BME280;2020;48.682;9.024;2024-02-14T01:23:16;96868.34;;;3.01;93.95
4012;BME280;2020;48.682;9.024;2024-02-14T01:25:41;96872.03;;;2.97;95.10
4012;BME280;2020;48.682;9.024;2024-02-14T01:28:07;96866.50;;;3.03;95.37
4012;BME280;2020;48.682;9.024;2024-02-14T01:30:33;96863.22;;;3.01;94.59
4012;BME280;2020;48.682;9.024;2024-02-14T01:33:00;96857.88;;;3.04;94.14
4012;BME280;2020;48.682;9.024;2024-02-14T01:35:25;96847.38;;;3.07;95.15
4012;BME280;2020;48.682;9.024;2024-02-14T01:37:51;96847.56;;;3.04;94.41
4012;BME280;2020;48.682;9.024;2024-02-14T01:40:17;96844.28;;;3.02;95.16
4012;BME280;2020;48.682;9.024;2024-02-14T01:42:42;96842.84;;;2.98;95.07
4012;BME280;2020;48.682;9.024;2024-02-14T01:45:08;96847.97;;;2.98;94.43
4012;BME280;2020;48.682;9.024;2024-02-14T01:47:33;96841.50;;;3.05;95.26
4012;BME280;2020;48.682;9.024;2024-02-14T01:50:00;96847.16;;;2.97;95.26
4012;BME280;2020;48.682;9.024;2024-02-14T01:52:25;96852.72;;;3.04;94.88
4012;BME280;2020;48.682;9.024;2024-02-14T01:54:52;96844.00;;;3.06;94.91
4012;BME280;2020;48.682;9.024;2024-02-14T01:57:20;96847.38;;;3.07;95.52
4012;BME280;2020;48.682;9.024;2024-02-14T01:59:46;96847.91;;;3.12;95.08
4012;BME280;2020;48.682;9.024;2024-02-14T02:02:12;96846.25;;;3.11;94.90
4012;BME280;2020;48.682;9.024;2024-02-14T02:04:38;96846.97;;;3.13;95.44
4012;BME280;2020;48.682;9.024;2024-02-14T02:07:03;96831.66;;;3.12;96.04
4012;BME280;2020;48.682;9.024;2024-02-14T02:09:29;96833.78;;;3.05;95.47
4012;BME280;2020;48.682;9.024;2024-02-14T02:11:56;96826.59;;;3.10;95.97
4012;BME280;2020;48.682;9.024;2024-02-14T02:14:21;96835.63;;;3.03;94.08
4012;BME280;2020;48.682;9.024;2024-02-14T02:16:48;96831.03;;;3.08;93.75
4012;BME280;2020;48.682;9.024;2024-02-14T02:19:14;96821.66;;;3.07;93.83
4012;BME280;2020;48.682;9.024;2024-02-14T02:21:41;96824.03;;;3.10;94.90
4012;BME280;2020;48.682;9.024;2024-02-14T02:24:08;96820.84;;;3.06;95.25
4012;BME280;2020;48.682;9.024;2024-02-14T02:26:33;96828.25;;;3.11;95.08
4012;BME280;2020;48.682;9.024;2024-02-14T02:28:58;96838.53;;;3.11;95.24
4012;BME280;2020;48.682;9.024;2024-02-14T02:31:24;96831.53;;;3.13;94.47
4012;BME280;2020;48.682;9.024;2024-02-14T02:33:50;96833.50;;;3.10;95.27
4012;BME280;2020;48.682;9.024;2024-02-14T02:36:16;96817.03;;;3.12;94.90
4012;BME280;2020;48.682;9.024;2024-02-14T02:38:41;96811.38;;;3.07;94.13
4012;BME280;2020;48.682;9.024;2024-02-14T02:41:06;96804.97;;;3.00;93.71
4012;BME280;2020;48.682;9.024;2024-02-14T02:43:32;96796.34;;;3.01;94.65
4012;BME280;2020;48.682;9.024;2024-02-14T02:45:58;96795.53;;;3.00;94.08
4012;BME280;2020;48.682;9.024;2024-02-14T02:48:23;96794.50;;;3.03;94.39
4012;BME280;2020;48.682;9.024;2024-02-14T02:50:49;96788.09;;;2.96;93.83
4012;BME280;2020;48.682;9.024;2024-02-14T02:53:15;96782.22;;;2.93;94.93
4012;BME280;2020;48.682;9.024;2024-02-14T02:55:40;96779.66;;;2.93;95.55
4012;BME280;2020;48.682;9.024;2024-02-14T02:58:06;96780.91;;;3.01;93.85
4012;BME280;2020;48.682;9.024;2024-02-14T03:00:32;96775.78;;;3.01;93.76
4012;BME280;2020;48.682;9.024;2024-02-14T03:02:57;96775.38;;;3.07;93.08
4012;BME280;2020;48.682;9.024;2024-02-14T03:05:23;96774.97;;;3.13;92.19
4012;BME280;2020;48.682;9.024;2024-02-14T03:07:49;96776.59;;;3.14;92.50
4012;BME280;2020;48.682;9.024;2024-02-14T03:10:16;96779.69;;;3.19;91.93
4012;BME280;2020;48.682;9.024;2024-02-14T03:12:49;96780.63;;;3.18;91.55
4012;BME280;2020;48.682;9.024;2024-02-14T03:15:15;96777.66;;;3.25;91.13
4012;BME280;2020;48.682;9.024;2024-02-14T03:17:41;96773.94;;;3.29;90.80
4012;BME280;2020;48.682;9.024;2024-02-14T03:20:07;96791.03;;;3.30;91.69
4012;BME280;2020;48.682;9.024;2024-02-14T03:22:38;96790.31;;;3.28;91.63
4012;BME280;2020;48.682;9.024;2024-02-14T03:25:07;96792.66;;;3.31;91.18
4012;BME280;2020;48.682;9.024;2024-02-14T03:27:33;96803.38;;;3.25;90.24
4012;BME280;2020;48.682;9.024;2024-02-14T03:29:59;96814.94;;;3.32;89.86
4012;BME280;2020;48.682;9.024;2024-02-14T03:32:27;96814.94;;;3.32;89.75
4012;BME280;2020;48.682;9.024;2024-02-14T03:34:52;96812.84;;;3.24;90.24
4012;BME280;2020;48.682;9.024;2024-02-14T03:37:17;96810.16;;;3.26;89.85
4012;BME280;2020;48.682;9.024;2024-02-14T03:39:43;96811.00;;;3.26;89.76
4012;BME280;2020;48.682;9.024;2024-02-14T03:42:11;96807.47;;;3.14;90.14
4012;BME280;2020;48.682;9.024;2024-02-14T03:44:36;96811.16;;;3.10;90.20
4012;BME280;2020;48.682;9.024;2024-02-14T03:47:03;96811.16;;;3.10;89.97
4012;BME280;2020;48.682;9.024;2024-02-14T03:49:29;96818.75;;;2.99;91.26
4012;BME280;2020;48.682;9.024;2024-02-14T03:51:55;96831.41;;;3.02;91.45
4012;BME280;2020;48.682;9.024;2024-02-14T03:54:21;96837.28;;;3.04;92.06
4012;BME280;2020;48.682;9.024;2024-02-14T03:56:47;96829.03;;;2.99;92.88
4012;BME280;2020;48.682;9.024;2024-02-14T03:59:12;96833.47;;;2.97;92.25
4012;BME280;2020;48.682;9.024;2024-02-14T04:01:37;96833.47;;;2.97;94.45
4012;BME280;2020;48.682;9.024;2024-02-14T04:04:03;96827.59;;;2.95;95.39
4012;BME280;2020;48.682;9.024;2024-02-14T04:06:29;96820.00;;;2.93;95.20
4012;BME280;2020;48.682;9.024;2024-02-14T04:08:56;96818.97;;;2.96;94.96
4012;BME280;2020;48.682;9.024;2024-02-14T04:11:22;96819.34;;;2.89;94.93
4012;BME280;2020;48.682;9.024;2024-02-14T04:13:47;96822.56;;;2.93;92.92
4012;BME280;2020;48.682;9.024;2024-02-14T04:16:12;96820.22;;;3.03;91.24
4012;BME280;2020;48.682;9.024;2024-02-14T04:18:38;96824.44;;;3.04;90.30
4012;BME280;2020;48.682;9.024;2024-02-14T04:21:03;96821.66;;;3.07;89.65
4012;BME280;2020;48.682;9.024;2024-02-14T04:23:29;96813.22;;;3.05;89.51
4012;BME280;2020;48.682;9.024;2024-02-14T04:25:54;96813.22;;;3.05;89.07
4012;BME280;2020;48.682;9.024;2024-02-14T04:28:19;96822.50;;;3.07;88.65
4012;BME280;2020;48.682;9.024;2024-02-14T04:30:44;96824.34;;;3.05;88.74
4012;BME280;2020;48.682;9.024;2024-02-14T04:33:10;96830.31;;;3.06;88.74
4012;BME280;2020;48.682;9.024;2024-02-14T04:35:36;96835.25;;;3.09;88.68
4012;BME280;2020;48.682;9.024;2024-02-14T04:38:01;96838.00;;;3.06;88.55
4012;BME280;2020;48.682;9.024;2024-02-14T04:40:27;96839.56;;;3.09;88.31
4012;BME280;2020;48.682;9.024;2024-02-14T04:42:53;96831.75;;;3.10;88.48
4012;BME280;2020;48.682;9.024;2024-02-14T04:45:18;96829.56;;;3.04;87.84
4012;BME280;2020;48.682;9.024;2024-02-14T04:47:43;96836.38;;;3.05;87.07
4012;BME280;2020;48.682;9.024;2024-02-14T04:50:09;96843.88;;;3.08;88.20
4012;BME280;2020;48.682;9.024;2024-02-14T04:52:34;96846.66;;;3.05;87.09
4012;BME280;2020;48.682;9.024;2024-02-14T04:55:00;96845.53;;;3.09;86.77
4012;BME280;2020;48.682;9.024;2024-02-14T04:57:25;96845.41;;;2.98;87.45
4012;BME280;2020;48.682;9.024;2024-02-14T04:59:50;96849.63;;;2.99;87.69
4012;BME280;2020;48.682;9.024;2024-02-14T05:02:16;96856.19;;;2.90;88.27
4012;BME280;2020;48.682;9.024;2024-02-14T05:04:41;96848.75;;;2.85;88.84
4012;BME280;2020;48.682;9.024;2024-02-14T05:07:06;96849.69;;;2.84;89.22
4012;BME280;2020;48.682;9.024;2024-02-14T05:09:32;96838.47;;;2.85;89.98
4012;BME280;2020;48.682;9.024;2024-02-14T05:11:58;96850.22;;;2.89;90.87
4012;BME280;2020;48.682;9.024;2024-02-14T05:14:23;96850.41;;;2.86;90.20
4012;BME280;2020;48.682;9.024;2024-02-14T05:16:48;96841.38;;;2.93;91.49
4012;BME280;2020;48.682;9.024;2024-02-14T05:19:14;96841.38;;;2.93;91.09
4012;BME280;2020;48.682;9.024;2024-02-14T05:21:39;96850.47;;;2.99;91.62
4012;BME280;2020;48.682;9.024;2024-02-14T05:24:05;96845.00;;;3.04;90.83
4012;BME280;2020;48.682;9.024;2024-02-14T05:26:31;96841.22;;;3.10;91.09
4012;BME280;2020;48.682;9.024;2024-02-14T05:28:57;96831.16;;;3.19;88.99
4012;BME280;2020;48.682;9.024;2024-02-14T05:31:22;96832.41;;;3.27;89.28
4012;BME280;2020;48.682;9.024;2024-02-14T05:33:47;96832.63;;;3.36;88.08
4012;BME280;2020;48.682;9.024;2024-02-14T05:36:12;96831.81;;;3.36;88.41
4012;BME280;2020;48.682;9.024;2024-02-14T05:38:38;96825.03;;;3.35;90.48
4012;BME280;2020;48.682;9.024;2024-02-14T05:41:03;96829.97;;;3.38;90.65
4012;BME280;2020;48.682;9.024;2024-02-14T05:43:28;96833.66;;;3.47;89.74
4012;BME280;2020;48.682;9.024;2024-02-14T05:45:54;96828.53;;;3.60;87.08
4012;BME280;2020;48.682;9.024;2024-02-14T05:48:19;96834.91;;;3.67;87.14
4012;BME280;2020;48.682;9.024;2024-02-14T05:50:45;96829.78;;;3.67;86.42
4012;BME280;2020;48.682;9.024;2024-02-14T05:53:10;96819.47;;;3.67;85.78
4012;BME280;2020;48.682;9.024;2024-02-14T05:55:37;96825.44;;;3.68;85.48
4012;BME280;2020;48.682;9.024;2024-02-14T05:58:02;96826.25;;;3.68;84.90
4012;BME280;2020;48.682;9.024;2024-02-14T06:00:28;96825.63;;;3.64;83.65
4012;BME280;2020;48.682;9.024;2024-02-14T06:02:53;96847.06;;;3.65;83.51
4012;BME280;2020;48.682;9.024;2024-02-14T06:05:18;96842.94;;;3.62;83.83
4012;BME280;2020;48.682;9.024;2024-02-14T06:07:43;96839.63;;;3.60;84.23
4012;BME280;2020;48.682;9.024;2024-02-14T06:10:10;96849.13;;;3.60;84.26
4012;BME280;2020;48.682;9.024;2024-02-14T06:12:35;96851.78;;;3.58;85.14
4012;BME280;2020;48.682;9.024;2024-02-14T06:15:01;96843.25;;;3.58;84.35
4012;BME280;2020;48.682;9.024;2024-02-14T06:17:26;96845.72;;;3.59;84.85
4012;BME280;2020;48.682;9.024;2024-02-14T06:19:52;96847.47;;;3.59;83.90
4012;BME280;2020;48.682;9.024;2024-02-14T06:22:17;96844.59;;;3.63;84.73
4012;BME280;2020;48.682;9.024;2024-02-14T06:24:42;96852.00;;;3.68;85.48
4012;BME280;2020;48.682;9.024;2024-02-14T06:27:08;96862.31;;;3.68;84.67
4012;BME280;2020;48.682;9.024;2024-02-14T06:29:33;96864.16;;;3.66;83.93
4012;BME280;2020;48.682;9.024;2024-02-14T06:31:58;96872.59;;;3.68;84.88
4012;BME280;2020;48.682;9.024;2024-02-14T06:34:23;96859.94;;;3.65;85.34
4012;BME280;2020;48.682;9.024;2024-02-14T06:36:51;96865.81;;;3.67;85.57
4012;BME280;2020;48.682;9.024;2024-02-14T06:39:16;96866.81;;;3.64;85.84
4012;BME280;2020;48.682;9.024;2024-02-14T06:41:41;96871.38;;;3.61;83.87
4012;BME280;2020;48.682;9.024;2024-02-14T06:44:06;96880.00;;;3.60;84.60
4012;BME280;2020;48.682;9.024;2024-02-14T06:46:32;96878.38;;;3.59;84.39
4012;BME280;2020;48.682;9.024;2024-02-14T06:48:57;96878.16;;;3.62;84.58
4012;BME280;2020;48.682;9.024;2024-02-14T06:51:23;96872.19;;;3.61;84.61
4012;BME280;2020;48.682;9.024;2024-02-14T06:53:49;96863.72;;;3.59;84.92
4012;BME280;2020;48.682;9.024;2024-02-14T06:56:15;96865.28;;;3.62;85.10
4012;BME280;2020;48.682;9.024;2024-02-14T06:58:40;96862.00;;;3.60;85.40
4012;BME280;2020;48.682;9.024;2024-02-14T07:01:06;96871.56;;;3.58;84.92
4012;BME280;2020;48.682;9.024;2024-02-14T07:03:31;96864.38;;;3.63;85.53
4012;BME280;2020;48.682;9.024;2024-02-14T07:05:56;96869.59;;;3.61;85.97
4012;BME280;2020;48.682;9.024;2024-02-14T07:08:22;96872.19;;;3.61;86.14
4012;BME280;2020;48.682;9.024;2024-02-14T07:10:47;96868.59;;;3.64;86.12
4012;BME280;2020;48.682;9.024;2024-02-14T07:13:12;96871.47;;;3.72;85.17
4012;BME280;2020;48.682;9.024;2024-02-14T07:15:39;96875.50;;;3.76;84.62
4012;BME280;2020;48.682;9.024;2024-02-14T07:18:04;96885.59;;;3.79;84.91
4012;BME280;2020;48.682;9.024;2024-02-14T07:20:30;96885.06;;;3.87;84.05
4012;BME280;2020;48.682;9.024;2024-02-14T07:22:56;96890.63;;;3.94;85.51
4012;BME280;2020;48.682;9.024;2024-02-14T07:25:22;96894.75;;;4.09;84.09
4012;BME280;2020;48.682;9.024;2024-02-14T07:27:47;96884.53;;;4.21;83.07
4012;BME280;2020;48.682;9.024;2024-02-14T07:30:17;96890.72;;;4.18;82.70
4012;BME280;2020;48.682;9.024;2024-02-14T07:32:44;96889.69;;;4.21;83.13
4012;BME280;2020;48.682;9.024;2024-02-14T07:35:09;96886.16;;;4.22;83.50
4012;BME280;2020;48.682;9.024;2024-02-14T07:37:34;96887.81;;;4.23;84.43
4012;BME280;2020;48.682;9.024;2024-02-14T07:40:00;96877.50;;;4.23;85.43
4012;BME280;2020;48.682;9.024;2024-02-14T07:42:25;96882.25;;;4.29;84.02
4012;BME280;2020;48.682;9.024;2024-02-14T07:44:50;96881.00;;;4.35;84.48
4012;BME280;2020;48.682;9.024;2024-02-14T07:47:15;96878.09;;;4.39;85.15
4012;BME280;2020;48.682;9.024;2024-02-14T07:49:41;96886.84;;;4.50;84.31
4012;BME280;2020;48.682;9.024;2024-02-14T07:52:06;96896.41;;;4.61;84.97
4012;BME280;2020;48.682;9.024;2024-02-14T07:54:31;96906.06;;;4.70;85.34
4012;BME280;2020;48.682;9.024;2024-02-14T07:56:57;96906.69;;;4.74;83.80
4012;BME280;2020;48.682;9.024;2024-02-14T07:59:22;96907.91;;;4.81;84.48
4012;BME280;2020;48.682;9.024;2024-02-14T08:01:47;96910.28;;;4.84;85.90
4012;BME280;2020;48.682;9.024;2024-02-14T08:04:12;96918.50;;;4.89;86.42
4012;BME280;2020;48.682;9.024;2024-02-14T08:06:38;96917.09;;;4.85;84.78
4012;BME280;2020;48.682;9.024;2024-02-14T08:09:03;96915.94;;;4.89;85.61
4012;BME280;2020;48.682;9.024;2024-02-14T08:11:31;96918.38;;;4.91;85.29
4012;BME280;2020;48.682;9.024;2024-02-14T08:13:57;96924.38;;;4.91;85.44
4012;BME280;2020;48.682;9.024;2024-02-14T08:16:23;96921.59;;;4.94;85.62
4012;BME280;2020;48.682;9.024;2024-02-14T08:18:48;96921.88;;;5.03;86.25
4012;BME280;2020;48.682;9.024;2024-02-14T08:21:16;96923.28;;;5.07;85.22
4012;BME280;2020;48.682;9.024;2024-02-14T08:23:41;96928.59;;;5.17;88.06
4012;BME280;2020;48.682;9.024;2024-02-14T08:26:07;96923.84;;;5.23;86.19
4012;BME280;2020;48.682;9.024;2024-02-14T08:28:38;96930.81;;;5.34;85.51
4012;BME280;2020;48.682;9.024;2024-02-14T08:31:09;96932.81;;;5.42;85.99
4012;BME280;2020;48.682;9.024;2024-02-14T08:33:35;96925.13;;;5.53;86.32
4012;BME280;2020;48.682;9.024;2024-02-14T08:36:02;96938.69;;;5.68;84.63
4012;BME280;2020;48.682;9.024;2024-02-14T08:38:27;96931.53;;;5.83;83.85
4012;BME280;2020;48.682;9.024;2024-02-14T08:40:52;96934.81;;;5.85;83.05
4012;BME280;2020;48.682;9.024;2024-02-14T08:43:18;96939.38;;;6.06;83.46
4012;BME280;2020;48.682;9.024;2024-02-14T08:45:43;96932.81;;;6.13;82.36
4012;BME280;2020;48.682;9.024;2024-02-14T08:48:09;96930.47;;;6.22;80.94
4012;BME280;2020;48.682;9.024;2024-02-14T08:50:34;96923.91;;;6.29;80.74
4012;BME280;2020;48.682;9.024;2024-02-14T08:52:59;96924.00;;;6.27;78.97
4012;BME280;2020;48.682;9.024;2024-02-14T08:55:24;96934.09;;;6.31;78.75
4012;BME280;2020;48.682;9.024;2024-02-14T08:57:50;96936.81;;;6.29;77.90
4012;BME280;2020;48.682;9.024;2024-02-14T09:00:16;96931.75;;;6.27;80.81
4012;BME280;2020;48.682;9.024;2024-02-14T09:02:45;96934.47;;;6.26;80.08
4012;BME280;2020;48.682;9.024;2024-02-14T09:05:11;96933.16;;;6.32;79.94
4012;BME280;2020;48.682;9.024;2024-02-14T09:07:37;96932.81;;;6.36;78.78
4012;BME280;2020;48.682;9.024;2024-02-14T09:10:02;96932.34;;;6.42;79.23
4012;BME280;2020;48.682;9.024;2024-02-14T09:12:28;96936.34;;;6.47;81.01
4012;BME280;2020;48.682;9.024;2024-02-14T09:14:53;96935.16;;;6.51;79.43
4012;BME280;2020;48.682;9.024;2024-02-14T09:17:18;96941.50;;;6.58;80.12
4012;BME280;2020;48.682;9.024;2024-02-14T09:19:44;96939.75;;;6.70;79.04
4012;BME280;2020;48.682;9.024;2024-02-14T09:22:09;96935.75;;;6.77;79.60
4012;BME280;2020;48.682;9.024;2024-02-14T09:24:34;96932.78;;;6.82;78.63
4012;BME280;2020;48.682;9.024;2024-02-14T09:26:59;96930.31;;;6.92;79.22
4012;BME280;2020;48.682;9.024;2024-02-14T09:29:27;96935.81;;;6.98;80.02
4012;BME280;2020;48.682;9.024;2024-02-14T09:31:52;96944.72;;;7.06;79.64
4012;BME280;2020;48.682;9.024;2024-02-14T09:34:18;96935.97;;;7.18;81.20
4012;BME280;2020;48.682;9.024;2024-02-14T09:36:44;96933.25;;;7.31;80.98
4012;BME280;2020;48.682;9.024;2024-02-14T09:39:10;96934.03;;;7.43;81.47
4012;BME280;2020;48.682;9.024;2024-02-14T09:41:40;96918.94;;;7.48;81.40
4012;BME280;2020;48.682;9.024;2024-02-14T09:44:08;96924.44;;;7.55;81.63
4012;BME280;2020;48.682;9.024;2024-02-14T09:46:35;96926.66;;;7.59;80.98
4012;BME280;2020;48.682;9.024;2024-02-14T09:49:01;96937.47;;;7.65;82.60
4012;BME280;2020;48.682;9.024;2024-02-14T09:51:28;96942.00;;;7.72;83.01
4012;BME280;2020;48.682;9.024;2024-02-14T09:53:54;96937.16;;;7.79;80.79
4012;BME280;2020;48.682;9.024;2024-02-14T09:56:21;96938.81;;;7.80;80.71
4012;BME280;2020;48.682;9.024;2024-02-14T09:58:48;96938.31;;;7.86;82.16
4012;BME280;2020;48.682;9.024;2024-02-14T10:01:20;96936.41;;;7.88;81.89
4012;BME280;2020;48.682;9.024;2024-02-14T10:03:49;96923.31;;;7.90;82.00
4012;BME280;2020;48.682;9.024;2024-02-14T10:06:14;96918.97;;;7.90;81.84
4012;BME280;2020;48.682;9.024;2024-02-14T10:08:41;96920.66;;;8.01;83.09
4012;BME280;2020;48.682;9.024;2024-02-14T10:11:08;96919.31;;;8.07;82.29
4012;BME280;2020;48.682;9.024;2024-02-14T10:13:33;96920.44;;;8.14;82.78
4012;BME280;2020;48.682;9.024;2024-02-14T10:15:59;96919.91;;;8.11;81.45
4012;BME280;2020;48.682;9.024;2024-02-14T10:18:25;96915.31;;;8.24;83.12
4012;BME280;2020;48.682;9.024;2024-02-14T10:20:55;96927.19;;;8.58;80.42
4012;BME280;2020;48.682;9.024;2024-02-14T10:23:21;96927.56;;;8.74;80.68
4012;BME280;2020;48.682;9.024;2024-02-14T10:25:49;96914.09;;;9.20;81.55
4012;BME280;2020;48.682;9.024;2024-02-14T10:28:15;96916.44;;;9.43;79.85
4012;BME280;2020;48.682;9.024;2024-02-14T10:30:45;96910.78;;;9.77;78.80
4012;BME280;2020;48.682;9.024;2024-02-14T10:33:10;96924.59;;;9.87;79.18
4012;BME280;2020;48.682;9.024;2024-02-14T10:35:36;96920.94;;;9.60;79.17
4012;BME280;2020;48.682;9.024;2024-02-14T10:38:03;96917.25;;;9.53;80.73
4012;BME280;2020;48.682;9.024;2024-02-14T10:40:31;96912.56;;;9.66;79.20
4012;BME280;2020;48.682;9.024;2024-02-14T10:42:57;96912.81;;;9.83;78.73
4012;BME280;2020;48.682;9.024;2024-02-14T10:45:24;96895.88;;;9.79;80.89
4012;BME280;2020;48.682;9.024;2024-02-14T10:47:51;96909.53;;;10.01;80.33
4012;BME280;2020;48.682;9.024;2024-02-14T10:50:17;96900.22;;;10.08;79.91
4012;BME280;2020;48.682;9.024;2024-02-14T10:52:48;96913.25;;;10.36;80.32
4012;BME280;2020;48.682;9.024;2024-02-14T10:55:15;96899.50;;;10.53;80.19
4012;BME280;2020;48.682;9.024;2024-02-14T10:57:43;96905.97;;;10.77;81.61
4012;BME280;2020;48.682;9.024;2024-02-14T11:00:10;96904.28;;;11.04;80.40
4012;BME280;2020;48.682;9.024;2024-02-14T11:02:38;96907.94;;;11.11;78.51
4012;BME280;2020;48.682;9.024;2024-02-14T11:05:05;96908.66;;;10.86;76.13
4012;BME280;2020;48.682;9.024;2024-02-14T11:07:32;96923.41;;;10.67;77.07
4012;BME280;2020;48.682;9.024;2024-02-14T11:10:04;96922.25;;;10.51;79.72
4012;BME280;2020;48.682;9.024;2024-02-14T11:12:36;96928.06;;;10.26;77.12
4012;BME280;2020;48.682;9.024;2024-02-14T11:17:36;96939.34;;;10.16;78.35
4012;BME280;2020;48.682;9.024;2024-02-14T11:20:21;96933.91;;;10.00;80.18
4012;BME280;2020;48.682;9.024;2024-02-14T11:23:03;96924.56;;;10.07;78.85
4012;BME280;2020;48.682;9.024;2024-02-14T11:25:32;96938.19;;;10.29;80.78
4012;BME280;2020;48.682;9.024;2024-02-14T11:27:59;96948.44;;;10.30;79.14
4012;BME280;2020;48.682;9.024;2024-02-14T11:30:34;96944.66;;;10.24;79.93
4012;BME280;2020;48.682;9.024;2024-02-14T11:35:41;96934.97;;;10.07;80.97
4012;BME280;2020;48.682;9.024;2024-02-14T11:38:06;96946.91;;;10.00;79.42
4012;BME280;2020;48.682;9.024;2024-02-14T11:40:32;96953.59;;;9.92;79.57
4012;BME280;2020;48.682;9.024;2024-02-14T11:42:57;96948.25;;;9.84;80.68
4012;BME280;2020;48.682;9.024;2024-02-14T11:45:23;96948.66;;;9.89;82.52
4012;BME280;2020;48.682;9.024;2024-02-14T11:47:49;96948.94;;;9.86;81.27
4012;BME280;2020;48.682;9.024;2024-02-14T11:50:14;96938.81;;;10.03;81.65
4012;BME280;2020;48.682;9.024;2024-02-14T11:52:42;96945.72;;;10.32;85.67
4012;BME280;2020;48.682;9.024;2024-02-14T11:55:08;96938.09;;;10.58;81.60
4012;BME280;2020;48.682;9.024;2024-02-14T11:57:35;96941.13;;;11.09;80.84
4012;BME280;2020;48.682;9.024;2024-02-14T12:00:00;96938.28;;;11.49;79.55
4012;BME280;2020;48.682;9.024;2024-02-14T12:02:26;96929.38;;;11.78;78.18
4012;BME280;2020;48.682;9.024;2024-02-14T12:04:52;96932.03;;;11.86;75.16
4012;BME280;2020;48.682;9.024;2024-02-14T12:07:19;96932.53;;;12.08;71.24
4012;BME280;2020;48.682;9.024;2024-02-14T12:09:45;96934.97;;;12.01;72.58
4012;BME280;2020;48.682;9.024;2024-02-14T12:12:10;96933.59;;;11.97;74.79
4012;BME280;2020;48.682;9.024;2024-02-14T12:14:36;96941.81;;;11.84;73.38
4012;BME280;2020;48.682;9.024;2024-02-14T12:17:01;96929.06;;;11.81;73.25
4012;BME280;2020;48.682;9.024;2024-02-14T12:19:27;96941.00;;;11.65;75.85
4012;BME280;2020;48.682;9.024;2024-02-14T12:21:53;96937.53;;;11.38;74.15
4012;BME280;2020;48.682;9.024;2024-02-14T12:24:20;96938.59;;;11.18;76.51
4012;BME280;2020;48.682;9.024;2024-02-14T12:26:45;96942.47;;;11.14;75.38
4012;BME280;2020;48.682;9.024;2024-02-14T12:29:13;96938.59;;;11.18;75.97
4012;BME280;2020;48.682;9.024;2024-02-14T12:31:39;96936.06;;;11.26;79.72
4012;BME280;2020;48.682;9.024;2024-02-14T12:34:04;96937.44;;;11.30;78.01
4012;BME280;2020;48.682;9.024;2024-02-14T12:36:32;96928.47;;;11.15;76.80
4012;BME280;2020;48.682;9.024;2024-02-14T12:38:58;96919.69;;;11.16;77.29
4012;BME280;2020;48.682;9.024;2024-02-14T12:41:23;96918.06;;;11.15;78.37
4012;BME280;2020;48.682;9.024;2024-02-14T12:43:51;96913.84;;;10.86;74.83
4012;BME280;2020;48.682;9.024;2024-02-14T12:46:16;96912.81;;;10.78;77.17
4012;BME280;2020;48.682;9.024;2024-02-14T12:48:42;96915.78;;;10.83;78.58
4012;BME280;2020;48.682;9.024;2024-02-14T12:51:07;96919.34;;;10.82;78.33
4012;BME280;2020;48.682;9.024;2024-02-14T12:53:34;96916.91;;;10.81;77.63
4012;BME280;2020;48.682;9.024;2024-02-14T12:55:59;96913.28;;;10.92;79.50
4012;BME280;2020;48.682;9.024;2024-02-14T12:58:24;96916.25;;;10.97;77.86
4012;BME280;2020;48.682;9.024;2024-02-14T13:00:50;96913.16;;;11.11;78.46
4012;BME280;2020;48.682;9.024;2024-02-14T13:03:15;96910.91;;;11.17;79.21
4012;BME280;2020;48.682;9.024;2024-02-14T13:05:40;96903.47;;;11.22;76.42
4012;BME280;2020;48.682;9.024;2024-02-14T13:08:08;96897.69;;;11.28;76.66
4012;BME280;2020;48.682;9.024;2024-02-14T13:10:36;96902.31;;;11.34;77.23
4012;BME280;2020;48.682;9.024;2024-02-14T13:13:01;96909.44;;;11.32;77.07
4012;BME280;2020;48.682;9.024;2024-02-14T13:15:26;96900.19;;;11.20;78.97
4012;BME280;2020;48.682;9.024;2024-02-14T13:17:52;96901.81;;;11.21;77.12
4012;BME280;2020;48.682;9.024;2024-02-14T13:20:17;96894.38;;;11.26;76.70
4012;BME280;2020;48.682;9.024;2024-02-14T13:22:42;96900.50;;;11.35;78.54
4012;BME280;2020;48.682;9.024;2024-02-14T13:25:08;96888.06;;;11.29;77.67
4012;BME280;2020;48.682;9.024;2024-02-14T13:27:34;96885.78;;;11.44;78.28
4012;BME280;2020;48.682;9.024;2024-02-14T13:29:59;96897.00;;;11.44;77.20